Time;durP1;ratioP1;P1;durP2;ratioP2;P2;SDS_P1;SDS_P2;PMS_P1;PMS_P2;Temp;Humidity;BMP_temperature;BMP_pressure;BME280_temperature;BME280_humidity;BME280_pressure;Samples;Min_cycle;Max_cycle;Signal;HPM_P1;HPM_P2
2023/06/09 00:02:23;;;;;;;5.28;3.88;;;17.40;56.40;;;;;;5001776;28;20040;-90
2023/06/09 00:04:49;;;;;;;4.95;4.15;;;17.40;56.50;;;;;;4993069;28;20034;-90
2023/06/09 00:07:16;;;;;;;5.88;4.50;;;17.30;56.70;;;;;;4991606;28;20461;-91
2023/06/09 00:09:45;;;;;;;6.10;4.07;;;17.30;56.60;;;;;;4984849;28;20085;-91
2023/06/09 00:12:12;;;;;;;5.00;3.97;;;17.30;57.00;;;;;;4985934;28;20059;-91
2023/06/09 00:14:38;;;;;;;5.75;4.50;;;17.30;56.60;;;;;;4990124;28;20070;-91
2023/06/09 00:17:08;;;;;;;8.43;4.10;;;17.20;56.60;;;;;;4993892;28;20047;-90
2023/06/09 00:19:35;;;;;;;4.53;4.00;;;17.20;56.60;;;;;;4985229;28;20070;-91
2023/06/09 00:22:01;;;;;;;6.13;4.00;;;17.20;56.70;;;;;;4987073;28;20227;-92
2023/06/09 00:24:27;;;;;;;6.10;4.10;;;17.10;56.70;;;;;;4985339;28;20112;-91
2023/06/09 00:26:52;;;;;;;6.32;4.35;;;17.10;56.80;;;;;;4991189;28;20022;-93
2023/06/09 00:29:24;;;;;;;6.78;4.18;;;17.10;56.90;;;;;;4992453;28;20432;-91
2023/06/09 00:31:50;;;;;;;4.38;3.92;;;17.00;57.10;;;;;;4989289;28;20092;-91
2023/06/09 00:34:15;;;;;;;3.95;3.55;;;17.00;56.90;;;;;;4990427;28;20029;-91
2023/06/09 00:36:41;;;;;;;4.85;3.75;;;17.00;57.00;;;;;;4988257;28;20046;-91
2023/06/09 00:39:08;;;;;;;4.63;3.78;;;17.00;57.10;;;;;;4990866;28;20018;-92
2023/06/09 00:41:38;;;;;;;4.93;3.95;;;16.90;57.10;;;;;;4993724;28;20120;-91
2023/06/09 00:44:04;;;;;;;5.38;3.80;;;16.90;57.60;;;;;;4990986;28;20053;-91
2023/06/09 00:46:30;;;;;;;4.57;3.65;;;16.90;57.90;;;;;;4986281;28;20576;-91
2023/06/09 00:48:56;;;;;;;5.20;3.80;;;16.90;57.50;;;;;;4998040;28;20061;-91
2023/06/09 00:51:22;;;;;;;6.90;3.97;;;16.90;57.70;;;;;;4991136;28;20029;-91
2023/06/09 00:53:48;;;;;;;4.28;3.60;;;16.90;57.70;;;;;;4984954;28;20029;-91
2023/06/09 00:56:15;;;;;;;5.95;3.78;;;16.80;57.50;;;;;;4987059;28;20034;-91
2023/06/09 00:58:41;;;;;;;4.43;3.50;;;16.80;57.40;;;;;;4988401;28;20112;-91
2023/06/09 01:01:07;;;;;;;3.78;3.05;;;16.80;57.30;;;;;;4993674;28;20084;-90
2023/06/09 01:03:33;;;;;;;4.47;3.42;;;16.80;57.40;;;;;;4989999;28;20037;-93
2023/06/09 01:06:38;;;;;;;3.80;3.30;;;16.70;57.50;;;;;;4986200;28;20042;-91
2023/06/09 01:09:10;;;;;;;4.10;3.10;;;16.70;58.80;;;;;;5011330;28;20120;-91
2023/06/09 01:11:51;;;;;;;4.82;4.03;;;16.50;57.70;;;;;;4993011;28;20125;-91
2023/06/09 01:14:44;;;;;;;4.05;3.25;;;16.60;58.40;;;;;;4995226;28;20095;-91
2023/06/09 01:17:14;;;;;;;4.60;3.10;;;16.60;58.30;;;;;;4990704;28;20042;-91
2023/06/09 01:19:45;;;;;;;4.07;3.35;;;16.60;57.60;;;;;;4988980;28;20029;-91
2023/06/09 01:22:49;;;;;;;4.57;3.40;;;16.50;58.00;;;;;;4987981;28;20034;-91
2023/06/09 01:25:52;;;;;;;4.35;3.40;;;16.50;58.80;;;;;;4994396;28;20026;-91
2023/06/09 01:28:24;;;;;;;4.45;3.17;;;16.50;57.80;;;;;;4944881;29;20031;-90
2023/06/09 01:30:52;;;;;;;4.70;3.53;;;16.50;57.80;;;;;;4932032;28;20039;-92
2023/06/09 01:33:23;;;;;;;4.28;3.40;;;16.40;57.80;;;;;;4936999;29;20030;-91
2023/06/09 01:35:51;;;;;;;7.28;3.65;;;16.30;58.10;;;;;;4934569;29;20039;-91
2023/06/09 01:38:21;;;;;;;4.60;3.50;;;16.30;58.00;;;;;;4929982;29;20039;-92
2023/06/09 01:40:47;;;;;;;4.22;3.58;;;16.30;58.20;;;;;;4929354;29;20058;-92
2023/06/09 01:43:13;;;;;;;5.05;3.60;;;16.20;58.00;;;;;;4936291;29;20058;-92
2023/06/09 01:45:39;;;;;;;4.60;3.78;;;16.20;58.10;;;;;;4944640;29;20438;-91
2023/06/09 01:48:43;;;;;;;5.07;3.78;;;16.20;58.20;;;;;;4948802;28;20427;-91
2023/06/09 01:51:26;;;;;;;4.77;3.70;;;16.20;59.40;;;;;;4893172;29;20074;-91
2023/06/09 01:54:00;;;;;;;4.30;3.55;;;16.20;58.60;;;;;;4930126;29;20607;-91
2023/06/09 01:56:33;;;;;;;5.07;3.93;;;16.20;58.70;;;;;;4933317;29;20069;-90
2023/06/09 01:59:05;;;;;;;4.63;3.30;;;16.20;58.90;;;;;;4931160;29;20281;-90
2023/06/09 02:01:33;;;;;;;5.43;4.18;;;16.10;58.70;;;;;;4940999;28;20287;-91
2023/06/09 02:04:02;;;;;;;5.75;4.18;;;16.10;58.60;;;;;;4988531;28;20026;-92
2023/06/09 02:06:28;;;;;;;5.03;4.45;;;16.10;58.70;;;;;;4998456;28;20025;-95
2023/06/09 02:08:54;;;;;;;5.40;4.57;;;16.10;58.60;;;;;;4989737;28;20077;-91
2023/06/09 02:11:21;;;;;;;5.20;4.40;;;16.00;58.70;;;;;;4979948;28;20031;-91
2023/06/09 02:13:54;;;;;;;5.15;4.38;;;16.00;58.80;;;;;;4980964;28;20034;-92
2023/06/09 02:16:21;;;;;;;6.70;4.80;;;16.00;59.50;;;;;;4986551;28;20049;-92
2023/06/09 02:18:48;;;;;;;8.25;4.78;;;16.00;59.10;;;;;;4990278;28;20116;-91
2023/06/09 02:21:14;;;;;;;5.18;4.18;;;16.00;59.20;;;;;;4990435;28;20041;-92
2023/06/09 02:23:40;;;;;;;5.25;4.35;;;16.00;59.20;;;;;;4997380;28;20052;-91
2023/06/09 02:26:06;;;;;;;6.38;4.22;;;16.00;59.20;;;;;;4982018;28;20471;-94
2023/06/09 02:28:33;;;;;;;6.00;4.32;;;16.00;59.20;;;;;;4991512;28;20349;-90
2023/06/09 02:30:59;;;;;;;7.68;3.85;;;15.90;59.20;;;;;;4996234;28;20030;-92
2023/06/09 02:33:25;;;;;;;7.45;3.95;;;15.90;59.00;;;;;;4994217;28;20029;-91
2023/06/09 02:35:52;;;;;;;6.32;4.40;;;15.90;59.20;;;;;;4989180;28;20475;-91
2023/06/09 02:38:18;;;;;;;6.05;4.25;;;15.90;59.30;;;;;;4999286;28;20046;-91
2023/06/09 02:40:46;;;;;;;5.68;4.70;;;15.90;59.30;;;;;;4996221;28;20077;-92
2023/06/09 02:43:12;;;;;;;5.07;3.80;;;15.90;59.40;;;;;;4990586;28;20044;-92
2023/06/09 02:45:38;;;;;;;5.85;4.03;;;15.90;59.40;;;;;;4992118;28;20031;-91
2023/06/09 02:48:04;;;;;;;6.28;3.97;;;15.90;59.30;;;;;;4989055;28;20049;-91
2023/06/09 02:50:30;;;;;;;5.45;3.70;;;15.80;59.40;;;;;;4989286;28;20065;-92
2023/06/09 02:52:56;;;;;;;4.72;3.83;;;15.80;59.40;;;;;;5000042;28;20032;-91
2023/06/09 02:55:22;;;;;;;5.03;3.53;;;15.80;59.50;;;;;;4989338;28;21051;-91
2023/06/09 02:57:48;;;;;;;4.30;3.72;;;15.80;60.30;;;;;;4988962;28;20072;-91
2023/06/09 03:00:14;;;;;;;4.05;3.63;;;15.80;59.60;;;;;;4992358;28;20485;-92
2023/06/09 03:02:41;;;;;;;5.22;3.55;;;15.80;59.60;;;;;;4993265;28;20053;-91
2023/06/09 03:05:07;;;;;;;7.00;4.20;;;15.80;59.80;;;;;;4993346;28;20080;-91
2023/06/09 03:07:34;;;;;;;7.47;3.90;;;15.80;60.00;;;;;;4988031;28;20034;-92
2023/06/09 03:10:01;;;;;;;9.05;4.10;;;15.70;60.00;;;;;;4990657;28;20067;-90
2023/06/09 03:12:26;;;;;;;4.22;3.50;;;15.70;60.00;;;;;;4990913;28;20030;-92
2023/06/09 03:14:52;;;;;;;4.45;3.60;;;15.70;60.00;;;;;;4988159;28;20052;-91
2023/06/09 03:17:18;;;;;;;5.15;3.85;;;15.70;59.90;;;;;;4982878;28;20070;-90
2023/06/09 03:19:44;;;;;;;4.47;3.80;;;15.70;60.10;;;;;;4997000;28;20021;-91
2023/06/09 03:22:10;;;;;;;5.20;3.90;;;15.70;60.30;;;;;;4989279;28;20032;-91
2023/06/09 03:24:36;;;;;;;4.57;3.83;;;15.70;60.40;;;;;;4994768;28;20038;-91
2023/06/09 03:27:01;;;;;;;5.28;4.07;;;15.60;60.30;;;;;;4991488;28;20136;-92
2023/06/09 03:29:30;;;;;;;7.95;4.25;;;15.60;60.30;;;;;;4986495;28;20434;-90
2023/06/09 03:31:55;;;;;;;5.82;4.45;;;15.60;60.30;;;;;;4989669;28;20034;-90
2023/06/09 03:34:22;;;;;;;5.43;3.80;;;15.60;60.20;;;;;;4985816;28;20470;-91
2023/06/09 03:36:48;;;;;;;6.25;4.55;;;15.60;60.30;;;;;;4999401;28;20053;-91
2023/06/09 03:39:14;;;;;;;4.25;3.80;;;15.60;60.30;;;;;;4997473;28;20083;-91
2023/06/09 03:41:40;;;;;;;5.40;4.18;;;15.60;60.30;;;;;;4998734;28;20030;-91
2023/06/09 03:44:06;;;;;;;5.82;4.32;;;15.50;60.30;;;;;;4995174;28;20026;-91
2023/06/09 03:46:31;;;;;;;5.60;4.63;;;15.50;60.30;;;;;;4996661;28;20033;-93
2023/06/09 03:48:57;;;;;;;4.72;4.18;;;15.50;60.30;;;;;;4995704;28;20472;-91
2023/06/09 03:51:23;;;;;;;6.25;3.90;;;15.50;60.60;;;;;;5003719;28;20025;-91
2023/06/09 03:53:49;;;;;;;5.00;3.95;;;15.50;60.90;;;;;;4996285;28;20026;-91
2023/06/09 03:56:14;;;;;;;4.90;4.35;;;15.50;61.10;;;;;;4998730;28;20068;-91
2023/06/09 03:58:40;;;;;;;5.75;3.92;;;15.50;61.20;;;;;;4994878;28;20068;-91
2023/06/09 04:01:10;;;;;;;6.05;4.38;;;15.50;61.30;;;;;;4988744;28;20023;-90
2023/06/09 04:03:39;;;;;;;4.70;4.03;;;15.50;61.50;;;;;;4991202;28;20057;-91
2023/06/09 04:06:05;;;;;;;4.65;4.10;;;15.60;62.00;;;;;;4990791;28;20033;-91
2023/06/09 04:08:31;;;;;;;4.15;3.35;;;15.60;61.80;;;;;;4986585;28;20090;-90
2023/06/09 04:10:58;;;;;;;4.63;4.00;;;15.60;61.60;;;;;;4992015;28;20050;-90
2023/06/09 04:13:23;;;;;;;7.22;4.00;;;15.70;61.70;;;;;;4995402;28;20030;-90
2023/06/09 04:15:49;;;;;;;9.00;4.43;;;15.70;61.70;;;;;;4997660;28;20027;-90
2023/06/09 04:18:15;;;;;;;6.35;4.28;;;15.70;61.80;;;;;;4990898;28;20045;-91
2023/06/09 04:20:42;;;;;;;6.43;4.15;;;15.80;61.90;;;;;;4995275;28;20354;-90
2023/06/09 04:23:08;;;;;;;5.47;4.60;;;15.80;61.90;;;;;;4997856;28;20035;-91
2023/06/09 04:25:35;;;;;;;6.43;4.97;;;15.90;61.90;;;;;;4992342;28;20041;-91
2023/06/09 04:28:03;;;;;;;5.90;5.00;;;15.90;61.70;;;;;;4987900;28;20037;-91
2023/06/09 04:30:30;;;;;;;6.70;4.97;;;16.00;61.70;;;;;;4991517;28;20054;-93
2023/06/09 04:33:01;;;;;;;7.57;5.28;;;16.00;61.60;;;;;;4983102;28;20038;-91
2023/06/09 04:35:27;;;;;;;7.72;5.72;;;16.10;61.70;;;;;;4985464;28;20082;-90
2023/06/09 04:37:54;;;;;;;7.47;5.20;;;16.20;61.50;;;;;;4997740;28;20103;-90
2023/06/09 04:40:23;;;;;;;6.13;5.03;;;16.30;61.40;;;;;;4983811;28;20085;-91
2023/06/09 04:42:56;;;;;;;6.80;5.05;;;16.30;61.30;;;;;;5000988;28;20477;-90
2023/06/09 04:45:27;;;;;;;6.30;4.80;;;16.40;61.60;;;;;;4986318;28;20030;-91
2023/06/09 04:47:59;;;;;;;6.55;4.43;;;16.50;61.20;;;;;;4994787;28;20364;-90
2023/06/09 04:50:33;;;;;;;5.45;3.92;;;16.60;61.30;;;;;;4995538;28;20022;-91
2023/06/09 04:53:04;;;;;;;5.25;4.32;;;16.70;61.20;;;;;;4990409;28;20023;-93
2023/06/09 04:55:35;;;;;;;6.95;4.68;;;16.80;61.00;;;;;;4993781;28;20025;-90
2023/06/09 04:58:01;;;;;;;6.25;4.93;;;16.90;61.00;;;;;;4977070;28;20046;-93
2023/06/09 05:00:28;;;;;;;5.38;4.57;;;16.90;60.30;;;;;;4989545;28;20026;-94
2023/06/09 05:02:57;;;;;;;6.68;4.55;;;17.00;60.60;;;;;;4991685;28;20311;-91
2023/06/09 05:05:24;;;;;;;5.15;4.40;;;17.10;60.60;;;;;;4989286;28;20480;-91
2023/06/09 05:07:50;;;;;;;5.40;4.60;;;17.20;60.30;;;;;;4986574;28;20132;-91
2023/06/09 05:10:16;;;;;;;8.90;4.18;;;17.30;60.20;;;;;;4996265;28;20037;-91
2023/06/09 05:12:42;;;;;;;7.50;4.70;;;17.40;60.00;;;;;;4986596;28;20030;-90
2023/06/09 05:15:09;;;;;;;7.80;4.43;;;17.50;59.90;;;;;;4985383;28;20026;-91
2023/06/09 05:17:41;;;;;;;10.32;4.43;;;17.60;59.80;;;;;;4990017;28;20202;-92
2023/06/09 05:20:08;;;;;;;7.10;4.55;;;17.70;59.60;;;;;;4994868;28;20037;-92
2023/06/09 05:22:35;;;;;;;8.00;4.53;;;17.80;59.70;;;;;;4992277;28;20496;-91
2023/06/09 05:25:01;;;;;;;6.07;4.50;;;17.90;59.60;;;;;;5013521;28;20033;-91
2023/06/09 05:27:27;;;;;;;14.57;4.70;;;18.00;59.80;;;;;;4997320;28;20032;-91
2023/06/09 05:29:53;;;;;;;9.77;4.97;;;18.20;59.60;;;;;;4987878;28;20022;-91
2023/06/09 05:32:19;;;;;;;18.38;5.22;;;18.30;59.60;;;;;;4984946;28;20038;-91
2023/06/09 05:34:45;;;;;;;10.85;4.63;;;18.40;59.40;;;;;;4990941;28;20034;-91
2023/06/09 05:37:13;;;;;;;9.90;3.72;;;18.50;59.10;;;;;;4996509;28;20467;-92
2023/06/09 05:39:42;;;;;;;9.68;4.80;;;18.70;59.10;;;;;;4994527;28;20027;-91
2023/06/09 05:42:12;;;;;;;7.22;4.18;;;18.80;58.90;;;;;;4995430;28;20524;-92
2023/06/09 05:44:38;;;;;;;7.70;4.40;;;18.90;58.80;;;;;;4991162;28;20033;-91
2023/06/09 05:47:04;;;;;;;6.57;3.90;;;19.10;58.40;;;;;;4989306;28;20370;-92
2023/06/09 05:49:30;;;;;;;7.78;4.45;;;19.20;58.30;;;;;;4994222;28;20466;-92
2023/06/09 05:51:55;;;;;;;4.50;3.83;;;19.30;58.10;;;;;;4985508;28;20036;-92
2023/06/09 05:54:21;;;;;;;6.50;4.28;;;19.40;58.00;;;;;;4990363;28;20026;-93
2023/06/09 05:56:48;;;;;;;7.88;3.55;;;19.60;57.70;;;;;;4991172;28;20042;-92
2023/06/09 05:59:15;;;;;;;5.90;3.88;;;19.70;57.60;;;;;;4992230;28;20022;-92
2023/06/09 06:01:41;;;;;;;5.82;3.78;;;19.80;57.40;;;;;;4995306;28;20108;-91
2023/06/09 06:04:08;;;;;;;6.65;3.80;;;19.90;57.00;;;;;;4990734;28;20033;-91
2023/06/09 06:06:34;;;;;;;9.50;3.75;;;20.10;56.90;;;;;;4989519;28;20488;-91
2023/06/09 06:09:00;;;;;;;5.18;3.80;;;20.20;56.50;;;;;;4996412;28;20057;-91
2023/06/09 06:11:26;;;;;;;5.68;3.90;;;20.30;56.50;;;;;;4984718;28;20021;-93
2023/06/09 06:13:51;;;;;;;4.40;3.72;;;20.40;56.40;;;;;;4987300;28;20553;-93
2023/06/09 06:16:17;;;;;;;7.68;3.88;;;20.50;56.20;;;;;;4992876;28;20098;-92
2023/06/09 06:18:44;;;;;;;7.18;3.85;;;20.60;56.00;;;;;;4986879;28;20097;-92
2023/06/09 06:21:11;;;;;;;4.90;3.63;;;20.70;56.10;;;;;;5000187;28;20036;-92
2023/06/09 06:23:37;;;;;;;4.57;3.70;;;20.90;55.90;;;;;;4989087;28;20431;-92
2023/06/09 06:26:02;;;;;;;3.33;3.03;;;21.00;56.00;;;;;;4993891;28;20048;-92
2023/06/09 06:28:28;;;;;;;6.57;4.40;;;21.00;56.00;;;;;;4994514;28;20426;-93
2023/06/09 06:30:54;;;;;;;6.38;5.05;;;21.30;56.10;;;;;;4994529;28;20081;-92
2023/06/09 06:33:20;;;;;;;9.95;5.68;;;21.40;55.70;;;;;;4992692;28;20029;-92
2023/06/09 06:35:46;;;;;;;11.35;5.38;;;21.50;55.50;;;;;;4983062;28;20057;-93
2023/06/09 06:38:12;;;;;;;5.32;4.25;;;21.70;55.40;;;;;;4990148;28;20056;-91
2023/06/09 06:40:37;;;;;;;6.05;4.20;;;21.80;55.10;;;;;;4989683;28;20124;-91
2023/06/09 06:43:03;;;;;;;4.95;3.85;;;21.90;55.00;;;;;;4994011;28;20040;-91
2023/06/09 06:45:30;;;;;;;5.28;4.03;;;22.00;55.00;;;;;;4993414;28;20053;-92
2023/06/09 06:47:55;;;;;;;5.05;4.10;;;22.10;54.70;;;;;;4998228;28;20030;-91
2023/06/09 06:50:21;;;;;;;5.78;3.97;;;22.30;54.60;;;;;;4989631;28;20086;-93
2023/06/09 06:52:50;;;;;;;7.65;4.47;;;22.40;54.30;;;;;;4994189;28;20117;-92
2023/06/09 06:55:16;;;;;;;6.13;4.28;;;22.50;54.10;;;;;;4997285;28;20121;-92
2023/06/09 06:57:41;;;;;;;6.20;4.13;;;22.60;54.20;;;;;;4973846;28;20062;-92
2023/06/09 07:00:16;;;;;;;4.47;3.67;;;22.70;53.90;;;;;;4993936;28;20492;-92
2023/06/09 07:02:46;;;;;;;5.93;3.38;;;22.80;53.50;;;;;;5002850;28;20034;-92
2023/06/09 07:05:13;;;;;;;6.65;3.65;;;22.90;53.20;;;;;;5001383;28;20032;-92
2023/06/09 07:07:38;;;;;;;5.25;3.75;;;23.00;53.00;;;;;;4984408;28;20027;-89
2023/06/09 07:10:05;;;;;;;5.05;3.60;;;23.10;52.50;;;;;;4991413;28;20031;-92
2023/06/09 07:12:32;;;;;;;5.20;3.80;;;23.20;52.40;;;;;;4994277;28;20033;-91
2023/06/09 07:14:58;;;;;;;4.78;3.53;;;23.30;52.70;;;;;;4989026;28;20053;-92
2023/06/09 07:17:24;;;;;;;5.50;3.67;;;23.30;52.50;;;;;;5000801;28;20035;-92
2023/06/09 07:19:50;;;;;;;4.57;2.97;;;23.40;52.30;;;;;;5000568;28;20541;-93
2023/06/09 07:22:16;;;;;;;4.60;3.50;;;23.40;51.80;;;;;;4977646;28;20109;-91
2023/06/09 07:24:41;;;;;;;4.20;3.20;;;23.50;51.50;;;;;;5004301;28;20022;-91
2023/06/09 07:27:08;;;;;;;3.88;3.40;;;23.60;51.50;;;;;;4989481;28;20030;-92
2023/06/09 07:29:37;;;;;;;4.60;3.25;;;23.60;51.30;;;;;;4991272;28;20022;-91
2023/06/09 07:32:03;;;;;;;3.90;2.83;;;23.80;51.10;;;;;;4985674;28;20034;-92
2023/06/09 07:34:33;;;;;;;3.95;3.28;;;23.90;50.90;;;;;;4990711;28;20384;-92
2023/06/09 07:37:00;;;;;;;5.55;3.65;;;24.00;50.50;;;;;;4983281;28;20136;-90
2023/06/09 07:39:27;;;;;;;3.80;3.10;;;24.10;50.50;;;;;;4985811;28;20027;-92
2023/06/09 07:41:52;;;;;;;3.55;3.00;;;24.20;50.30;;;;;;4996479;28;20064;-91
2023/06/09 07:44:18;;;;;;;3.45;2.92;;;24.30;50.00;;;;;;4979242;28;20037;-91
2023/06/09 07:46:44;;;;;;;3.75;3.30;;;24.40;50.00;;;;;;4991246;28;20034;-92
2023/06/09 07:49:10;;;;;;;4.55;3.17;;;24.40;49.90;;;;;;4998382;28;20093;-91
2023/06/09 07:51:37;;;;;;;3.22;2.58;;;24.50;49.30;;;;;;5001561;28;20383;-91
2023/06/09 07:54:05;;;;;;;5.93;2.70;;;24.60;49.20;;;;;;4996261;28;20026;-91
2023/06/09 07:56:32;;;;;;;4.18;2.88;;;24.70;48.60;;;;;;4989460;28;20038;-91
2023/06/09 07:58:58;;;;;;;3.67;2.63;;;24.70;48.60;;;;;;4999558;28;20032;-90
2023/06/09 08:01:27;;;;;;;4.90;3.03;;;24.80;48.60;;;;;;4996585;28;20022;-92
2023/06/09 08:03:53;;;;;;;8.70;3.15;;;24.90;48.60;;;;;;4987798;28;20030;-91
2023/06/09 08:06:19;;;;;;;3.17;2.88;;;24.90;48.40;;;;;;5005292;28;20051;-91
2023/06/09 08:08:45;;;;;;;4.40;2.78;;;25.00;48.30;;;;;;5003911;28;20548;-92
2023/06/09 08:11:11;;;;;;;13.30;3.13;;;25.10;48.60;;;;;;4996337;28;20073;-92
2023/06/09 08:13:37;;;;;;;4.45;3.08;;;25.20;48.70;;;;;;4997066;28;20056;-91
2023/06/09 08:16:03;;;;;;;2.72;2.50;;;25.30;48.70;;;;;;4996686;28;20025;-93
2023/06/09 08:18:29;;;;;;;2.85;2.40;;;25.40;48.20;;;;;;4994760;28;20038;-90
2023/06/09 08:20:55;;;;;;;2.95;2.55;;;25.40;48.10;;;;;;4994102;28;20508;-91
2023/06/09 08:23:20;;;;;;;3.45;2.53;;;25.50;48.10;;;;;;5003730;28;20465;-91
2023/06/09 08:25:47;;;;;;;5.35;2.53;;;25.50;48.40;;;;;;4992863;28;20080;-92
2023/06/09 08:28:14;;;;;;;3.78;2.45;;;25.60;48.50;;;;;;4995093;28;20032;-91
2023/06/09 08:30:40;;;;;;;3.08;2.40;;;25.70;48.10;;;;;;4995867;28;20029;-91
2023/06/09 08:33:05;;;;;;;2.58;2.38;;;25.80;48.40;;;;;;5002505;28;20095;-92
2023/06/09 08:35:32;;;;;;;7.00;2.42;;;25.90;48.20;;;;;;4992265;28;20050;-91
2023/06/09 08:38:01;;;;;;;2.58;2.38;;;26.00;48.10;;;;;;4998477;28;20522;-91
2023/06/09 08:40:27;;;;;;;5.30;2.05;;;26.10;48.00;;;;;;4986721;28;20022;-92
2023/06/09 08:42:55;;;;;;;3.33;2.10;;;26.10;47.80;;;;;;4987878;28;20037;-91
2023/06/09 08:45:22;;;;;;;2.40;2.00;;;26.20;47.50;;;;;;4998225;28;20028;-90
2023/06/09 08:47:49;;;;;;;2.42;2.15;;;26.30;47.50;;;;;;4997371;28;20042;-91
2023/06/09 08:50:18;;;;;;;3.05;2.17;;;26.30;46.80;;;;;;4997366;28;20075;-92
2023/06/09 08:52:45;;;;;;;3.85;2.90;;;26.30;46.60;;;;;;5005469;28;20461;-91
2023/06/09 08:55:13;;;;;;;3.67;2.13;;;26.30;46.10;;;;;;5005131;28;20025;-91
2023/06/09 08:57:40;;;;;;;2.17;1.98;;;26.40;46.30;;;;;;5007969;28;20041;-91
2023/06/09 09:00:09;;;;;;;2.50;2.30;;;26.40;46.50;;;;;;4992320;28;20022;-91
2023/06/09 09:02:35;;;;;;;2.65;2.45;;;26.40;46.40;;;;;;4998526;28;20025;-91
2023/06/09 09:05:01;;;;;;;3.17;2.70;;;26.40;46.80;;;;;;5006861;28;20034;-91
2023/06/09 09:07:28;;;;;;;3.40;2.33;;;26.50;47.00;;;;;;5017522;28;20381;-91
2023/06/09 09:09:54;;;;;;;3.03;2.45;;;26.60;46.70;;;;;;5002947;28;20030;-91
2023/06/09 09:12:20;;;;;;;3.40;3.10;;;26.70;47.00;;;;;;4997443;28;20068;-91
2023/06/09 09:14:47;;;;;;;2.60;2.30;;;26.80;46.60;;;;;;4994783;28;20037;-91
2023/06/09 09:17:14;;;;;;;2.55;2.20;;;26.90;46.60;;;;;;4988304;28;20045;-91
2023/06/09 09:19:48;;;;;;;2.72;2.13;;;26.90;46.00;;;;;;4993886;28;20124;-91
2023/06/09 09:22:14;;;;;;;2.85;2.65;;;27.00;46.50;;;;;;4984218;28;20493;-91
2023/06/09 09:24:43;;;;;;;3.78;2.90;;;27.10;46.50;;;;;;4990091;28;20038;-91
2023/06/09 09:27:19;;;;;;;3.40;2.58;;;27.20;46.20;;;;;;4999508;28;20021;-91
2023/06/09 09:29:46;;;;;;;3.35;2.60;;;27.30;45.80;;;;;;4983125;28;20037;-92
2023/06/09 09:32:12;;;;;;;4.18;2.60;;;27.40;45.70;;;;;;4989356;28;20429;-91
2023/06/09 09:34:45;;;;;;;4.10;2.40;;;27.40;45.40;;;;;;4999895;28;20029;-91
2023/06/09 09:37:17;;;;;;;2.28;2.15;;;27.50;44.80;;;;;;4985276;28;20050;-91
2023/06/09 09:39:52;;;;;;;3.08;2.40;;;27.60;43.90;;;;;;4975747;28;20089;-91
2023/06/09 09:42:20;;;;;;;3.72;2.45;;;27.60;43.50;;;;;;4993133;28;20488;-90
2023/06/09 09:44:47;;;;;;;4.28;2.40;;;27.60;44.20;;;;;;4984635;28;20080;-91
2023/06/09 09:47:15;;;;;;;2.85;2.42;;;27.60;44.40;;;;;;4990776;28;20030;-95
2023/06/09 09:50:10;;;;;;;4.00;2.63;;;27.60;44.10;;;;;;4991107;28;20030;-92
2023/06/09 09:52:36;;;;;;;;;;;27.60;43.80;;;;;;4991370;28;20043;-92
2023/06/09 09:55:08;;;;;;;2.45;1.92;;;27.60;44.80;;;;;;4991571;28;19915;-91
2023/06/09 09:57:35;;;;;;;5.63;2.67;;;27.70;44.90;;;;;;4988885;28;20042;-91
2023/06/09 10:00:08;;;;;;;7.75;3.00;;;27.80;44.80;;;;;;4992948;28;20474;-91
2023/06/09 10:02:36;;;;;;;2.30;2.10;;;27.90;44.50;;;;;;4987042;28;20018;-90
2023/06/09 10:05:04;;;;;;;2.72;2.10;;;28.00;44.20;;;;;;4991631;28;20284;-91
2023/06/09 10:07:32;;;;;;;4.88;2.10;;;28.10;43.70;;;;;;4990852;28;20026;-91
2023/06/09 10:09:58;;;;;;;2.30;2.10;;;28.20;43.70;;;;;;4986603;28;20037;-92
2023/06/09 10:12:25;;;;;;;4.22;2.60;;;28.30;43.60;;;;;;4989896;28;20116;-92
2023/06/09 10:14:54;;;;;;;2.45;1.90;;;28.40;42.90;;;;;;4995314;28;20025;-91
2023/06/09 10:17:21;;;;;;;4.97;2.10;;;28.50;43.10;;;;;;4987528;28;20041;-91
2023/06/09 10:19:51;;;;;;;2.42;2.22;;;28.50;42.80;;;;;;4991220;28;20040;-91
2023/06/09 10:22:19;;;;;;;2.20;1.98;;;28.50;42.40;;;;;;4991238;28;20044;-91
2023/06/09 10:24:46;;;;;;;4.93;1.90;;;28.50;42.00;;;;;;5002104;28;20022;-90
2023/06/09 10:27:14;;;;;;;2.08;1.90;;;28.50;42.20;;;;;;4984271;28;20389;-91
2023/06/09 10:29:40;;;;;;;2.85;1.70;;;28.50;41.20;;;;;;4984165;28;20105;-92
2023/06/09 10:32:09;;;;;;;1.70;1.60;;;28.50;42.20;;;;;;4996152;28;20120;-90
2023/06/09 10:34:36;;;;;;;3.55;2.00;;;28.50;42.50;;;;;;4985366;28;20031;-92
2023/06/09 10:37:04;;;;;;;2.25;1.85;;;28.60;42.00;;;;;;4981120;28;20134;-92
2023/06/09 10:39:57;;;;;;;2.92;1.90;;;28.70;41.40;;;;;;4987318;28;20030;-92
2023/06/09 10:42:47;;;;;;;5.13;1.70;;;28.70;40.30;;;;;;4981704;28;20081;-91
2023/06/09 10:45:14;;;;;;;1.60;1.50;;;28.70;41.10;;;;;;4985155;28;20116;-92
2023/06/09 10:47:48;;;;;;;1.90;1.70;;;28.70;40.90;;;;;;4995442;28;20030;-90
2023/06/09 10:50:30;;;;;;;9.30;2.03;;;28.70;41.50;;;;;;4997242;28;20390;-91
2023/06/09 10:52:59;;;;;;;1.92;1.73;;;28.80;41.20;;;;;;4989403;28;20026;-91
2023/06/09 10:55:27;;;;;;;2.83;1.75;;;28.90;40.70;;;;;;4988966;28;20027;-91
2023/06/09 10:57:54;;;;;;;1.70;1.60;;;29.00;40.70;;;;;;5000010;28;20128;-92
2023/06/09 11:00:20;;;;;;;2.65;1.80;;;29.10;39.60;;;;;;4990647;28;20438;-91
2023/06/09 11:03:12;;;;;;;1.90;1.70;;;29.20;40.00;;;;;;4991297;28;20034;-91
2023/06/09 11:05:43;;;;;;;7.30;2.08;;;29.30;39.70;;;;;;4993323;28;20445;-91
2023/06/09 11:08:09;;;;;;;3.42;2.28;;;29.40;40.50;;;;;;4994469;28;20029;-92
2023/06/09 11:10:38;;;;;;;2.70;2.08;;;29.50;40.00;;;;;;4988247;28;20036;-91
2023/06/09 11:13:38;;;;;;;2.95;1.92;;;29.60;39.40;;;;;;4993736;28;20021;-91
2023/06/09 11:16:04;;;;;;;2.42;1.92;;;29.60;38.40;;;;;;4992872;28;20056;-92
2023/06/09 11:18:30;;;;;;;2.72;1.98;;;29.60;39.50;;;;;;4993691;28;20038;-91
2023/06/09 11:21:23;;;;;;;2.38;2.10;;;29.50;38.90;;;;;;4985703;28;20026;-90
2023/06/09 11:24:03;;;;;;;2.38;2.15;;;29.40;38.60;;;;;;4994730;28;20060;-90
2023/06/09 11:26:30;;;;;;;6.28;2.40;;;29.40;38.90;;;;;;4997864;28;20025;-90
2023/06/09 11:28:56;;;;;;;2.28;2.00;;;29.30;39.60;;;;;;5002217;28;20030;-91
2023/06/09 11:31:22;;;;;;;3.60;2.08;;;29.10;38.80;;;;;;4987465;28;20031;-91
2023/06/09 11:33:53;;;;;;;2.67;2.00;;;29.10;38.80;;;;;;4992798;28;20030;-92
2023/06/09 11:36:21;;;;;;;2.05;1.70;;;29.10;39.30;;;;;;4995948;28;20049;-91
2023/06/09 11:38:48;;;;;;;5.60;2.50;;;29.00;39.20;;;;;;4994429;28;20050;-91
2023/06/09 11:41:18;;;;;;;2.25;2.05;;;29.00;38.90;;;;;;4994946;28;20029;-91
2023/06/09 11:43:54;;;;;;;2.85;2.30;;;29.10;39.30;;;;;;4992175;28;20045;-90
2023/06/09 11:46:20;;;;;;;3.22;2.00;;;29.20;39.10;;;;;;4990138;28;20033;-90
2023/06/09 11:49:08;;;;;;;2.22;2.03;;;29.20;38.60;;;;;;4988929;28;20030;-91
2023/06/09 11:51:54;;;;;;;3.10;1.83;;;29.10;38.30;;;;;;5010317;28;20061;-92
2023/06/09 11:54:20;;;;;;;2.55;1.92;;;29.00;38.10;;;;;;4991053;28;20477;-90
2023/06/09 11:56:47;;;;;;;3.53;1.80;;;28.90;38.90;;;;;;4989181;28;20087;-90
2023/06/09 11:59:17;;;;;;;2.33;1.90;;;28.80;39.40;;;;;;4991667;28;20385;-91
2023/06/09 12:01:43;;;;;;;7.78;1.70;;;28.80;39.50;;;;;;4993693;28;20030;-91
2023/06/09 12:04:09;;;;;;;5.32;1.83;;;28.80;39.40;;;;;;4991602;28;20034;-91
2023/06/09 12:06:36;;;;;;;3.10;1.60;;;28.80;39.20;;;;;;4998425;28;20033;-91
2023/06/09 12:09:22;;;;;;;1.63;1.48;;;28.90;39.30;;;;;;4995529;28;20033;-89
2023/06/09 12:11:52;;;;;;;1.90;1.60;;;29.10;38.90;;;;;;4994299;28;20381;-90
2023/06/09 12:14:19;;;;;;;2.92;2.05;;;29.20;38.70;;;;;;4993989;28;20033;-92
2023/06/09 12:16:45;;;;;;;2.95;1.90;;;29.30;38.50;;;;;;4991793;28;20033;-92
2023/06/09 12:19:11;;;;;;;4.57;2.42;;;29.40;39.20;;;;;;4986131;28;20075;-91
2023/06/09 12:21:37;;;;;;;2.28;1.80;;;29.40;38.50;;;;;;4995906;28;20026;-92
2023/06/09 12:24:03;;;;;;;2.70;1.63;;;29.40;38.10;;;;;;5001582;28;20035;-91
2023/06/09 12:26:44;;;;;;;2.20;1.85;;;29.40;37.30;;;;;;4991641;28;20393;-91
2023/06/09 12:29:10;;;;;;;3.60;1.70;;;29.30;36.80;;;;;;4983621;28;20018;-91
2023/06/09 12:31:46;;;;;;;3.40;2.15;;;29.20;37.50;;;;;;4988804;28;20057;-90
2023/06/09 12:34:24;;;;;;;3.55;1.75;;;29.00;36.40;;;;;;4996444;28;20033;-91
2023/06/09 12:36:50;;;;;;;2.20;1.90;;;28.90;36.60;;;;;;4987369;28;20057;-91
2023/06/09 12:39:24;;;;;;;1.77;1.65;;;28.70;37.00;;;;;;4991898;28;20021;-90
2023/06/09 12:41:50;;;;;;;2.65;1.85;;;28.60;37.90;;;;;;4997036;28;20053;-89
2023/06/09 12:44:23;;;;;;;2.15;1.70;;;28.60;38.80;;;;;;5005197;28;20037;-89
2023/06/09 12:46:55;;;;;;;2.53;1.88;;;28.70;38.70;;;;;;4991940;28;20041;-90
2023/06/09 12:49:32;;;;;;;2.92;1.58;;;28.90;39.10;;;;;;4998888;28;20030;-91
2023/06/09 12:52:00;;;;;;;2.35;1.55;;;29.10;37.40;;;;;;4987655;28;20057;-91
2023/06/09 12:54:27;;;;;;;1.52;1.42;;;29.20;37.50;;;;;;4993555;28;20081;-92
2023/06/09 12:56:56;;;;;;;2.38;1.52;;;29.20;37.60;;;;;;4994185;28;20496;-92